createdAt,value
2018-10-02T00:02:14.563Z,78.16
2018-10-02T00:04:42.751Z,78.03
2018-10-02T00:07:10.935Z,78.48
2018-10-02T00:09:39.111Z,78.31
2018-10-02T00:12:12.471Z,78.12
2018-10-02T00:14:40.637Z,78.06
2018-10-02T00:17:08.810Z,78.23
2018-10-02T00:19:36.996Z,78.26
2018-10-02T00:22:05.175Z,78.15
2018-10-02T00:24:33.343Z,78.31
2018-10-02T00:27:01.523Z,78.38
2018-10-02T00:29:29.703Z,78.26
2018-10-02T00:31:57.918Z,78.16
2018-10-02T00:34:26.062Z,77.96
2018-10-02T00:36:54.223Z,78.02
2018-10-02T00:39:22.402Z,78.06
2018-10-02T00:41:50.590Z,78.20
2018-10-02T00:44:18.791Z,78.11
2018-10-02T00:46:46.995Z,78.03
2018-10-02T00:49:15.155Z,77.95
2018-10-02T00:51:43.345Z,78.08
2018-10-02T00:54:11.499Z,78.28
2018-10-02T00:56:39.683Z,78.32
2018-10-02T00:59:07.879Z,78.12
2018-10-02T01:01:36.054Z,77.97
2018-10-02T01:04:04.232Z,77.79
2018-10-02T01:06:32.403Z,77.44
2018-10-02T01:09:00.578Z,77.69
2018-10-02T01:11:28.747Z,77.73
2018-10-02T01:13:56.923Z,78.20
2018-10-02T01:16:25.103Z,78.17
2018-10-02T01:18:53.277Z,78.28
2018-10-02T01:21:21.450Z,78.17
2018-10-02T01:23:49.643Z,78.08
2018-10-02T01:26:17.814Z,78.71
2018-10-02T01:28:46.022Z,78.97
2018-10-02T01:31:14.183Z,78.81
2018-10-02T01:33:42.352Z,79.00
2018-10-02T01:36:10.902Z,78.77
2018-10-02T01:38:39.184Z,78.83
2018-10-02T01:41:07.407Z,78.85
2018-10-02T01:43:35.594Z,78.71
2018-10-02T01:46:04.122Z,78.82
2018-10-02T01:48:32.299Z,78.95
2018-10-02T01:51:00.662Z,78.71
2018-10-02T01:53:28.847Z,78.66
2018-10-02T01:55:57.030Z,78.44
2018-10-02T01:58:25.210Z,78.52
2018-10-02T02:00:53.405Z,78.84
2018-10-02T02:03:21.627Z,78.75
2018-10-02T02:05:49.795Z,78.68
2018-10-02T02:08:17.985Z,78.75
2018-10-02T02:10:46.170Z,78.63
2018-10-02T02:13:14.363Z,78.37
2018-10-02T02:15:42.563Z,78.54
2018-10-02T02:18:10.740Z,78.67
2018-10-02T02:20:38.905Z,78.63
2018-10-02T02:23:07.099Z,78.56
2018-10-02T02:25:35.282Z,78.50
2018-10-02T02:28:03.506Z,78.83
2018-10-02T02:30:31.720Z,78.67
2018-10-02T02:32:59.899Z,78.95
2018-10-02T02:35:28.075Z,78.88
2018-10-02T02:37:56.243Z,78.84
2018-10-02T02:40:24.442Z,78.66
2018-10-02T02:42:52.655Z,78.71
2018-10-02T02:45:20.819Z,78.80
2018-10-02T02:47:54.396Z,79.04
2018-10-02T02:50:27.935Z,78.65
2018-10-02T02:53:00.098Z,78.55
2018-10-02T02:55:28.706Z,78.59
2018-10-02T02:57:57.331Z,78.78
2018-10-02T03:00:25.555Z,78.71
2018-10-02T03:02:53.732Z,78.86
2018-10-02T03:05:21.914Z,78.81
2018-10-02T03:07:50.078Z,78.81
2018-10-02T03:10:18.271Z,78.92
2018-10-02T03:12:46.434Z,79.09
2018-10-02T03:15:14.603Z,78.95
2018-10-02T03:17:42.779Z,79.09
2018-10-02T03:20:10.955Z,78.95
2018-10-02T03:22:39.134Z,79.09
2018-10-02T03:25:07.364Z,78.98
2018-10-02T03:27:35.575Z,79.30
2018-10-02T03:30:03.767Z,79.23
2018-10-02T03:32:31.954Z,79.21
2018-10-02T03:35:00.135Z,78.97
2018-10-02T03:37:28.303Z,79.04
2018-10-02T03:39:56.515Z,79.26
2018-10-02T03:42:24.689Z,79.09
2018-10-02T03:44:52.874Z,79.29
2018-10-02T03:47:21.038Z,79.32
2018-10-02T03:49:49.275Z,79.29
2018-10-02T03:52:17.491Z,79.16
2018-10-02T03:54:45.657Z,78.96
2018-10-02T03:57:13.832Z,79.23
2018-10-02T03:59:42.011Z,79.16
2018-10-02T04:02:10.183Z,79.09
2018-10-02T04:04:38.348Z,79.29
2018-10-02T04:07:06.515Z,79.12
2018-10-02T04:09:34.702Z,79.23
2018-10-02T04:12:02.887Z,79.35
2018-10-02T04:14:31.087Z,79.28
2018-10-02T04:16:59.248Z,79.01
2018-10-02T04:19:27.460Z,79.01
2018-10-02T04:21:55.639Z,79.07
2018-10-02T04:24:23.819Z,79.02
2018-10-02T04:26:52.010Z,79.00
2018-10-02T04:29:20.178Z,79.00
2018-10-02T04:31:48.375Z,78.83
2018-10-02T04:34:22.218Z,78.83
2018-10-02T04:36:50.379Z,78.79
2018-10-02T04:39:18.548Z,78.94
2018-10-02T04:41:46.718Z,79.15
2018-10-02T04:44:14.892Z,78.79
2018-10-02T04:46:43.116Z,78.47
2018-10-02T04:49:11.228Z,78.22
2018-10-02T04:51:39.392Z,78.67
2018-10-02T04:54:07.558Z,78.46
2018-10-02T04:56:35.833Z,78.52
2018-10-02T04:59:03.951Z,78.48
2018-10-02T05:01:32.178Z,78.47
2018-10-02T05:04:00.399Z,78.56
2018-10-02T05:06:28.582Z,78.60
2018-10-02T05:08:56.784Z,78.26
2018-10-02T05:11:24.964Z,78.56
2018-10-02T05:13:53.216Z,78.48
2018-10-02T05:16:21.394Z,78.46
2018-10-02T05:18:49.588Z,78.44
2018-10-02T05:21:17.765Z,78.74
2018-10-02T05:23:45.919Z,78.38
2018-10-02T05:26:14.083Z,78.41
2018-10-02T05:28:42.242Z,78.45
2018-10-02T05:31:10.425Z,78.57
2018-10-02T05:33:38.610Z,78.28
2018-10-02T05:36:06.781Z,78.41
2018-10-02T05:38:34.956Z,78.35
2018-10-02T05:41:03.141Z,78.28
2018-10-02T05:43:31.336Z,78.54
2018-10-02T05:45:59.511Z,78.28
2018-10-02T05:48:27.691Z,78.20
2018-10-02T05:50:55.877Z,78.18
2018-10-02T05:53:24.032Z,78.29
2018-10-02T05:55:52.217Z,78.06
2018-10-02T05:58:20.409Z,78.01
2018-10-02T06:00:48.558Z,77.52
2018-10-02T06:03:16.731Z,77.77
2018-10-02T06:05:44.933Z,77.86
2018-10-02T06:08:13.183Z,78.11
2018-10-02T06:10:41.330Z,77.90
2018-10-02T06:13:09.498Z,77.66
2018-10-02T06:15:37.697Z,77.85
2018-10-02T06:18:06.095Z,77.82
2018-10-02T06:20:34.219Z,77.78
2018-10-02T06:23:02.400Z,77.67
2018-10-02T06:25:30.661Z,77.70
2018-10-02T06:27:58.823Z,77.80
2018-10-02T06:30:27.079Z,77.56
2018-10-02T06:32:55.188Z,77.47
2018-10-02T06:35:23.396Z,77.47
2018-10-02T06:37:51.673Z,77.65
2018-10-02T06:40:19.905Z,77.23
2018-10-02T06:42:48.081Z,77.25
2018-10-02T06:45:16.257Z,77.41
2018-10-02T06:47:44.440Z,77.35
2018-10-02T06:50:12.603Z,77.27
2018-10-02T06:52:41.168Z,77.44
2018-10-02T06:55:09.515Z,77.20
2018-10-02T06:57:38.091Z,77.39
2018-10-02T07:00:06.798Z,77.29
2018-10-02T07:02:34.996Z,77.12
2018-10-02T07:05:03.122Z,77.25
2018-10-02T07:07:31.311Z,77.32
2018-10-02T07:09:59.560Z,77.44
2018-10-02T07:12:28.258Z,77.53
2018-10-02T07:14:56.458Z,77.55
2018-10-02T07:17:24.788Z,77.53
2018-10-02T07:19:52.993Z,77.53
2018-10-02T07:22:21.339Z,77.01
2018-10-02T07:24:49.531Z,77.10
2018-10-02T07:27:17.871Z,76.96
2018-10-02T07:29:45.938Z,76.70
2018-10-02T07:32:14.138Z,76.73
2018-10-02T07:34:42.338Z,76.89
2018-10-02T07:37:10.616Z,77.04
2018-10-02T07:39:38.826Z,77.35
2018-10-02T07:42:06.940Z,76.86
2018-10-02T07:44:35.079Z,77.00
2018-10-02T07:47:03.306Z,77.20
2018-10-02T07:49:31.527Z,77.42
2018-10-02T07:51:59.702Z,77.39
2018-10-02T07:54:27.911Z,76.72
2018-10-02T07:56:56.146Z,76.53
2018-10-02T07:59:24.344Z,76.31
2018-10-02T08:01:52.514Z,76.62
2018-10-02T08:04:22.016Z,75.82
2018-10-02T08:06:50.237Z,75.98
2018-10-02T08:09:18.440Z,75.88
2018-10-02T08:11:46.633Z,75.67
2018-10-02T08:14:14.782Z,75.85
2018-10-02T08:16:43.002Z,75.29
2018-10-02T08:19:11.197Z,75.49
2018-10-02T08:21:39.400Z,75.64
2018-10-02T08:24:07.854Z,76.09
2018-10-02T08:26:36.031Z,75.40
2018-10-02T08:29:04.235Z,75.41
2018-10-02T08:31:32.423Z,76.20
2018-10-02T08:34:00.599Z,77.03
2018-10-02T08:36:28.828Z,77.07
2018-10-02T08:38:56.959Z,76.64
2018-10-02T08:41:25.129Z,76.50
2018-10-02T08:43:53.349Z,76.46
2018-10-02T08:46:21.533Z,77.22
2018-10-02T08:48:50.033Z,77.33
2018-10-02T08:51:18.420Z,76.87
2018-10-02T08:53:46.654Z,77.27
2018-10-02T08:56:14.783Z,77.62
2018-10-02T08:58:42.956Z,77.21
2018-10-02T09:01:11.241Z,77.25
2018-10-02T09:03:39.335Z,77.32
2018-10-02T09:06:07.567Z,76.99
2018-10-02T09:08:35.747Z,77.27
2018-10-02T09:11:03.943Z,77.12
2018-10-02T09:13:32.127Z,76.99
2018-10-02T09:16:00.556Z,77.06
2018-10-02T09:18:28.620Z,77.24
2018-10-02T09:20:56.813Z,77.58
2018-10-02T09:23:24.933Z,76.80
2018-10-02T09:25:53.114Z,77.60
2018-10-02T09:28:21.341Z,77.49
2018-10-02T09:30:54.932Z,77.35
2018-10-02T09:33:28.297Z,77.33
2018-10-02T09:36:01.845Z,77.37
2018-10-02T09:38:35.279Z,77.20
2018-10-02T09:41:08.736Z,77.19
2018-10-02T09:43:45.498Z,77.40
2018-10-02T09:46:13.699Z,77.62
2018-10-02T09:48:42.009Z,78.08
2018-10-02T09:51:10.127Z,78.15
2018-10-02T09:53:38.293Z,78.15
2018-10-02T09:56:06.553Z,78.28
2018-10-02T09:58:34.763Z,78.26
2018-10-02T10:01:07.344Z,78.12
2018-10-02T10:03:35.888Z,78.22
2018-10-02T10:06:04.075Z,78.42
2018-10-02T10:08:32.318Z,78.28
2018-10-02T10:11:00.492Z,78.58
2018-10-02T10:13:28.688Z,78.64
2018-10-02T10:15:56.871Z,79.46
2018-10-02T10:18:25.029Z,79.08
2018-10-02T10:20:53.212Z,79.17
2018-10-02T10:23:21.380Z,79.61
2018-10-02T10:25:49.551Z,79.84
2018-10-02T10:28:17.785Z,79.99
2018-10-02T10:30:45.969Z,80.12
2018-10-02T10:33:14.152Z,79.87
2018-10-02T10:35:42.333Z,79.74
2018-10-02T10:38:10.595Z,79.89
2018-10-02T10:40:38.862Z,79.79
2018-10-02T10:43:06.983Z,79.92
2018-10-02T10:45:35.136Z,79.60
2018-10-02T10:48:03.307Z,79.77
2018-10-02T10:50:31.475Z,80.01
2018-10-02T10:52:59.682Z,79.68
2018-10-02T10:55:29.385Z,79.90
2018-10-02T10:57:57.593Z,80.01
2018-10-02T11:00:25.762Z,80.12
2018-10-02T11:02:53.966Z,79.77
2018-10-02T11:05:22.140Z,79.87
2018-10-02T11:07:50.330Z,79.94
2018-10-02T11:10:19.344Z,79.97
2018-10-02T11:12:47.732Z,80.11
2018-10-02T11:15:16.491Z,80.17
2018-10-02T11:17:44.599Z,79.96
2018-10-02T11:20:14.815Z,79.91
2018-10-02T11:22:42.999Z,79.78
2018-10-02T11:25:11.188Z,79.88
2018-10-02T11:27:39.353Z,79.87
2018-10-02T11:30:08.204Z,79.67
2018-10-02T11:32:36.378Z,79.69
2018-10-02T11:35:04.547Z,79.73
2018-10-02T11:37:32.727Z,79.72
2018-10-02T11:40:00.958Z,79.56
2018-10-02T11:42:29.139Z,79.58
2018-10-02T11:44:57.536Z,79.89
2018-10-02T11:47:25.490Z,79.25
2018-10-02T11:49:53.763Z,79.47
2018-10-02T11:52:21.878Z,79.54
2018-10-02T11:54:50.048Z,79.47
2018-10-02T11:57:18.246Z,79.54
2018-10-02T11:59:46.390Z,79.52
2018-10-02T12:02:14.574Z,79.77
2018-10-02T12:04:42.733Z,80.01
2018-10-02T12:07:10.906Z,79.68
2018-10-02T12:09:39.108Z,79.65
2018-10-02T12:12:07.372Z,79.82
2018-10-02T12:14:35.695Z,80.12
2018-10-02T12:17:03.828Z,80.00
2018-10-02T12:19:32.166Z,79.82
2018-10-02T12:22:00.208Z,79.78
2018-10-02T12:24:28.392Z,79.90
2018-10-02T12:26:56.579Z,79.77
2018-10-02T12:29:24.752Z,79.68
2018-10-02T12:31:52.940Z,79.94
2018-10-02T12:34:21.094Z,79.82
2018-10-02T12:36:49.282Z,79.91
2018-10-02T12:39:17.490Z,79.92
2018-10-02T12:41:45.849Z,80.03
2018-10-02T12:44:14.156Z,80.17
2018-10-02T12:46:42.339Z,80.20
2018-10-02T12:49:11.423Z,80.32
2018-10-02T12:51:40.153Z,80.06
2018-10-02T12:54:08.552Z,80.22
2018-10-02T12:56:36.698Z,80.13
2018-10-02T12:59:04.919Z,80.23
2018-10-02T13:01:33.312Z,80.17
2018-10-02T13:04:02.144Z,80.10
2018-10-02T13:06:30.347Z,80.29
2018-10-02T13:08:58.728Z,80.22
2018-10-02T13:11:27.071Z,80.41
2018-10-02T13:13:55.347Z,80.67
2018-10-02T13:16:23.757Z,80.65
2018-10-02T13:18:53.104Z,80.51
2018-10-02T13:21:21.906Z,80.29
2018-10-02T13:23:50.108Z,80.74
2018-10-02T13:26:18.299Z,80.51
2018-10-02T13:28:46.560Z,80.98
2018-10-02T13:31:14.762Z,81.37
2018-10-02T13:33:43.072Z,81.71
2018-10-02T13:36:11.343Z,81.67
2018-10-02T13:38:39.585Z,81.95
2018-10-02T13:41:07.884Z,81.64
2018-10-02T13:43:36.714Z,81.45
2018-10-02T13:46:04.950Z,81.27
2018-10-02T13:48:33.720Z,81.22
2018-10-02T13:51:01.971Z,81.04
2018-10-02T13:53:30.418Z,80.82
2018-10-02T13:55:59.148Z,80.65
2018-10-02T13:58:27.341Z,81.06
2018-10-02T14:00:55.704Z,80.71
2018-10-02T14:03:23.884Z,80.58
2018-10-02T14:05:52.140Z,80.83
2018-10-02T14:08:20.426Z,80.57
2018-10-02T14:10:48.597Z,80.75
2018-10-02T14:13:16.788Z,80.81
2018-10-02T14:15:45.040Z,80.69
2018-10-02T14:18:13.781Z,80.12
2018-10-02T14:20:42.007Z,80.28
2018-10-02T14:23:10.741Z,80.60
2018-10-02T14:25:38.932Z,80.33
2018-10-02T14:28:07.872Z,79.97
2018-10-02T14:30:36.555Z,80.04
2018-10-02T14:33:05.053Z,80.10
2018-10-02T14:35:33.623Z,80.22
2018-10-02T14:38:01.792Z,80.10
2018-10-02T14:40:30.459Z,79.98
2018-10-02T14:42:58.615Z,79.80
2018-10-02T14:45:26.780Z,80.19
2018-10-02T14:47:54.947Z,80.17
2018-10-02T14:50:23.239Z,80.50
2018-10-02T14:52:51.534Z,80.13
2018-10-02T14:55:19.756Z,80.13
2018-10-02T14:57:47.988Z,80.39
2018-10-02T15:00:16.176Z,80.20
2018-10-02T15:02:44.422Z,80.41
2018-10-02T15:05:12.614Z,80.21
2018-10-02T15:07:40.795Z,79.63
2018-10-02T15:10:09.051Z,79.28
2018-10-02T15:12:37.814Z,80.03
2018-10-02T15:15:06.199Z,80.01
2018-10-02T15:17:34.413Z,79.70
2018-10-02T15:20:02.589Z,79.77
2018-10-02T15:22:30.808Z,79.61
2018-10-02T15:24:59.611Z,79.89
2018-10-02T15:27:27.780Z,79.70
2018-10-02T15:29:55.960Z,80.06
2018-10-02T15:32:24.129Z,79.80
2018-10-02T15:34:52.283Z,79.82
2018-10-02T15:37:20.457Z,79.49
2018-10-02T15:39:48.611Z,79.27
2018-10-02T15:42:16.931Z,79.39
2018-10-02T15:44:45.123Z,79.56
2018-10-02T15:47:13.312Z,79.41
2018-10-02T15:49:41.542Z,79.54
2018-10-02T15:52:09.687Z,79.20
2018-10-02T15:54:37.927Z,79.04
2018-10-02T15:57:05.899Z,78.79
2018-10-02T15:59:34.072Z,78.50
2018-10-02T16:02:02.231Z,78.56
2018-10-02T16:04:30.394Z,78.59
2018-10-02T16:06:58.659Z,78.87
2018-10-02T16:09:26.944Z,78.81
2018-10-02T16:11:55.297Z,78.69
2018-10-02T16:14:24.515Z,78.47
2018-10-02T16:16:52.790Z,78.10
2018-10-02T16:19:21.065Z,77.58
2018-10-02T16:21:49.309Z,78.12
2018-10-02T16:24:18.465Z,78.18
2018-10-02T16:26:48.345Z,77.64
2018-10-02T16:29:17.272Z,77.49
2018-10-02T16:31:45.519Z,76.62
2018-10-02T16:34:13.688Z,75.94
2018-10-02T16:36:42.030Z,75.78
2018-10-02T16:39:10.406Z,75.50
2018-10-02T16:41:38.743Z,75.63
2018-10-02T16:44:06.957Z,75.78
2018-10-02T16:46:35.311Z,75.63
2018-10-02T16:49:03.604Z,75.66
2018-10-02T16:51:31.857Z,75.40
2018-10-02T16:54:00.115Z,75.19
2018-10-02T16:56:28.550Z,75.42
2018-10-02T16:58:56.752Z,75.74
2018-10-02T17:01:24.990Z,76.16
2018-10-02T17:03:53.792Z,75.88
2018-10-02T17:06:22.317Z,76.19
2018-10-02T17:08:51.645Z,76.28
2018-10-02T17:11:19.840Z,76.62
2018-10-02T17:13:48.819Z,76.66
2018-10-02T17:16:17.121Z,76.84
2018-10-02T17:18:46.110Z,77.08
2018-10-02T17:21:14.406Z,77.06
2018-10-02T17:23:43.483Z,77.17
2018-10-02T17:26:11.799Z,77.37
2018-10-02T17:28:40.004Z,77.63
2018-10-02T17:31:08.195Z,77.85
2018-10-02T17:33:36.443Z,78.26
2018-10-02T17:36:04.691Z,78.40
2018-10-02T17:38:34.420Z,78.40
2018-10-02T17:41:02.683Z,78.23
2018-10-02T17:43:30.843Z,78.74
2018-10-02T17:45:58.998Z,78.67
2018-10-02T17:48:27.163Z,78.76
2018-10-02T17:50:55.343Z,79.11
2018-10-02T17:53:23.512Z,79.11
2018-10-02T17:55:51.671Z,79.07
2018-10-02T17:58:19.834Z,79.22
2018-10-02T18:00:48.012Z,79.36
2018-10-02T18:03:16.183Z,79.51
2018-10-02T18:05:44.342Z,79.39
2018-10-02T18:08:12.536Z,79.51
2018-10-02T18:10:40.727Z,79.49
2018-10-02T18:13:09.966Z,79.36
2018-10-02T18:15:38.455Z,79.14
2018-10-02T18:18:06.539Z,78.92
2018-10-02T18:20:35.425Z,78.77
2018-10-02T18:23:03.687Z,78.82
2018-10-02T18:25:32.468Z,78.45
2018-10-02T18:28:00.692Z,78.15
2018-10-02T18:30:28.893Z,78.20
2018-10-02T18:32:58.138Z,78.06
2018-10-02T18:35:27.184Z,78.34
2018-10-02T18:37:55.326Z,78.26
2018-10-02T18:40:23.524Z,78.36
2018-10-02T18:42:51.702Z,78.43
2018-10-02T18:45:19.915Z,78.36
2018-10-02T18:47:48.072Z,78.24
2018-10-02T18:50:16.260Z,78.60
2018-10-02T18:52:45.043Z,78.64
2018-10-02T18:55:13.450Z,78.64
2018-10-02T18:57:41.632Z,78.72
2018-10-02T19:00:09.811Z,78.78
2018-10-02T19:02:38.051Z,78.62
2018-10-02T19:05:06.295Z,78.53
2018-10-02T19:07:34.463Z,78.64
2018-10-02T19:10:02.705Z,78.90
2018-10-02T19:12:30.812Z,78.83
2018-10-02T19:14:58.992Z,79.14
2018-10-02T19:17:27.162Z,79.03
2018-10-02T19:20:00.636Z,78.85
2018-10-02T19:22:28.810Z,78.73
2018-10-02T19:25:01.162Z,78.48
2018-10-02T19:27:29.366Z,78.62
2018-10-02T19:30:03.120Z,78.49
2018-10-02T19:32:32.087Z,78.50
2018-10-02T19:35:00.303Z,77.70
2018-10-02T19:37:34.099Z,77.86
2018-10-02T19:40:02.862Z,77.49
2018-10-02T19:42:32.199Z,77.47
2018-10-02T19:45:04.530Z,77.01
2018-10-02T19:47:32.929Z,76.82
2018-10-02T19:50:01.132Z,76.07
2018-10-02T19:52:30.567Z,75.99
2018-10-02T19:54:59.702Z,75.98
2018-10-02T19:57:28.890Z,75.94
2018-10-02T19:59:57.119Z,75.92
2018-10-02T20:02:25.340Z,75.69
2018-10-02T20:04:53.748Z,75.67
2018-10-02T20:07:23.416Z,75.71
2018-10-02T20:09:52.319Z,75.60
2018-10-02T20:12:21.623Z,75.68
2018-10-02T20:14:50.362Z,75.47
2018-10-02T20:17:19.595Z,75.71
2018-10-02T20:19:48.371Z,75.65
2018-10-02T20:22:16.653Z,75.63
2018-10-02T20:24:44.942Z,75.89
2018-10-02T20:27:13.833Z,75.86
2018-10-02T20:29:42.184Z,76.16
2018-10-02T20:32:10.346Z,76.09
2018-10-02T20:34:38.621Z,76.33
2018-10-02T20:37:06.799Z,76.23
2018-10-02T20:39:34.965Z,76.27
2018-10-02T20:42:03.152Z,76.18
2018-10-02T20:44:31.323Z,76.30
2018-10-02T20:46:59.493Z,76.54
2018-10-02T20:49:27.929Z,76.53
2018-10-02T20:51:56.142Z,76.85
2018-10-02T20:54:24.315Z,77.03
2018-10-02T20:56:52.472Z,77.32
2018-10-02T20:59:20.648Z,77.56
2018-10-02T21:01:48.819Z,77.60
2018-10-02T21:04:16.999Z,77.76
2018-10-02T21:06:45.155Z,77.64
2018-10-02T21:09:13.393Z,77.67
2018-10-02T21:11:41.542Z,77.49
2018-10-02T21:14:09.750Z,77.70
2018-10-02T21:16:37.900Z,77.58
2018-10-02T21:19:06.096Z,77.88
2018-10-02T21:21:34.324Z,78.05
2018-10-02T21:24:02.440Z,78.09
2018-10-02T21:26:30.731Z,78.19
2018-10-02T21:28:58.919Z,78.08
2018-10-02T21:31:27.127Z,78.20
2018-10-02T21:33:55.265Z,78.30
2018-10-02T21:36:23.445Z,78.32
2018-10-02T21:38:51.611Z,78.05
2018-10-02T21:41:19.780Z,78.34
2018-10-02T21:43:48.100Z,78.80
2018-10-02T21:46:16.289Z,78.92
2018-10-02T21:48:44.469Z,78.76
2018-10-02T21:51:12.647Z,78.82
2018-10-02T21:53:40.808Z,78.87
2018-10-02T21:56:08.979Z,78.95
2018-10-02T21:58:37.168Z,79.16
2018-10-02T22:01:06.143Z,79.15
2018-10-02T22:03:36.859Z,79.07
2018-10-02T22:06:05.132Z,79.31
2018-10-02T22:08:33.311Z,79.32
2018-10-02T22:11:01.474Z,79.37
2018-10-02T22:13:29.689Z,79.36
2018-10-02T22:15:58.248Z,79.49
2018-10-02T22:18:26.402Z,79.46
2018-10-02T22:20:54.567Z,79.27
2018-10-02T22:23:22.759Z,79.35
2018-10-02T22:25:50.923Z,79.49
2018-10-02T22:28:19.108Z,79.59
2018-10-02T22:30:47.266Z,79.64
2018-10-02T22:33:15.457Z,79.58
2018-10-02T22:35:43.594Z,79.67
2018-10-02T22:38:11.822Z,79.69
2018-10-02T22:40:39.943Z,79.62
2018-10-02T22:43:08.111Z,79.80
2018-10-02T22:45:36.292Z,79.49
2018-10-02T22:48:04.468Z,79.59
2018-10-02T22:50:32.645Z,79.71
2018-10-02T22:53:00.956Z,79.89
2018-10-02T22:55:29.127Z,79.76
2018-10-02T22:57:57.325Z,79.77
2018-10-02T23:00:25.497Z,79.69
2018-10-02T23:02:53.660Z,79.94
2018-10-02T23:05:21.843Z,80.25
2018-10-02T23:07:50.011Z,80.41
2018-10-02T23:10:18.183Z,80.16
2018-10-02T23:12:46.335Z,80.13
2018-10-02T23:15:14.510Z,80.58
2018-10-02T23:17:42.686Z,80.42
2018-10-02T23:20:10.858Z,80.59
2018-10-02T23:22:39.022Z,80.57
2018-10-02T23:25:07.195Z,80.83
2018-10-02T23:27:35.355Z,80.88
2018-10-02T23:30:03.518Z,81.07
2018-10-02T23:32:31.702Z,81.16
2018-10-02T23:34:59.871Z,81.14
2018-10-02T23:37:28.055Z,81.38
2018-10-02T23:39:56.231Z,81.17
2018-10-02T23:42:24.403Z,81.03
2018-10-02T23:44:52.567Z,81.04
2018-10-02T23:47:20.755Z,81.19
2018-10-02T23:49:48.928Z,81.09
2018-10-02T23:52:17.104Z,80.85
2018-10-02T23:54:45.265Z,80.83
2018-10-02T23:57:13.426Z,80.95
2018-10-02T23:59:41.603Z,80.72
